Time;durP1;ratioP1;P1;durP2;ratioP2;P2;SDS_P1;SDS_P2;PMS_P1;PMS_P2;Temp;Humidity;BMP_temperature;BMP_pressure;BME280_temperature;BME280_humidity;BME280_pressure;Samples;Min_cycle;Max_cycle;Signal;HPM_P1;HPM_P2
2023/09/28 00:01:45;;;;;;;3.70;3.50;;;23.30;47.60;;;;;;4994712;28;20226;-62
2023/09/28 00:04:11;;;;;;;3.40;3.27;;;23.30;47.60;;;;;;4996785;28;20952;-67
2023/09/28 00:06:37;;;;;;;3.40;3.20;;;23.30;47.60;;;;;;5001152;28;20460;-68
2023/09/28 00:09:03;;;;;;;3.30;3.10;;;23.40;47.70;;;;;;4994138;28;20917;-61
2023/09/28 00:11:29;;;;;;;3.03;2.93;;;23.30;47.60;;;;;;4998989;28;20226;-62
2023/09/28 00:13:54;;;;;;;3.60;3.40;;;23.30;47.60;;;;;;4991007;28;20465;-64
2023/09/28 00:16:20;;;;;;;3.93;3.73;;;23.30;47.60;;;;;;4973507;28;20258;-63
2023/09/28 00:18:46;;;;;;;3.30;3.10;;;23.30;47.60;;;;;;4994867;28;20230;-61
2023/09/28 00:21:11;;;;;;;3.47;3.27;;;23.30;47.60;;;;;;4993327;28;21193;-65
2023/09/28 00:23:37;;;;;;;3.47;3.30;;;23.30;47.60;;;;;;5001790;28;20307;-66
2023/09/28 00:26:02;;;;;;;3.47;3.27;;;23.30;47.60;;;;;;4984450;28;20233;-59
2023/09/28 00:28:28;;;;;;;3.53;3.37;;;23.30;47.60;;;;;;4985792;28;20228;-65
2023/09/28 00:30:55;;;;;;;3.70;3.50;;;23.30;47.60;;;;;;4991150;28;20482;-59
2023/09/28 00:33:20;;;;;;;3.90;3.70;;;23.30;47.60;;;;;;4992178;28;20227;-66
2023/09/28 00:35:46;;;;;;;4.27;4.07;;;23.30;47.60;;;;;;4994166;28;20460;-66
2023/09/28 00:38:11;;;;;;;3.60;3.40;;;23.30;47.60;;;;;;4999468;28;20222;-67
2023/09/28 00:40:41;;;;;;;3.13;3.03;;;23.30;47.60;;;;;;4992429;28;20288;-59
2023/09/28 00:43:07;;;;;;;3.20;3.10;;;23.30;47.60;;;;;;4998131;28;20235;-61
2023/09/28 00:45:33;;;;;;;3.43;3.23;;;23.30;47.60;;;;;;4995638;28;20562;-59
2023/09/28 00:48:00;;;;;;;3.70;3.50;;;23.30;48.30;;;;;;4992052;28;20229;-69
2023/09/28 00:50:28;;;;;;;4.23;3.90;;;23.30;47.60;;;;;;4990836;28;20469;-68
2023/09/28 00:52:58;;;;;;;3.60;3.40;;;23.30;47.60;;;;;;4996215;28;20475;-65
2023/09/28 00:55:24;;;;;;;2.97;2.87;;;23.30;47.60;;;;;;4995907;28;20499;-61
2023/09/28 00:57:51;;;;;;;3.73;3.53;;;23.30;47.60;;;;;;4994890;28;20476;-62
2023/09/28 01:02:50;;;;;;;3.10;3.00;;;23.30;47.60;;;;;;4997571;28;20495;-59
2023/09/28 01:05:17;;;;;;;3.70;3.50;;;23.30;47.60;;;;;;4998337;28;20822;-67
2023/09/28 01:07:43;;;;;;;3.43;3.23;;;23.30;47.60;;;;;;4981180;28;20468;-60
2023/09/28 01:10:09;;;;;;;3.83;3.63;;;23.30;47.60;;;;;;4998515;28;20484;-62
2023/09/28 01:12:38;;;;;;;3.33;3.23;;;23.30;47.60;;;;;;4992959;28;20682;-66
2023/09/28 01:15:09;;;;;;;3.23;3.03;;;23.30;47.60;;;;;;4996734;28;20476;-66
2023/09/28 01:17:36;;;;;;;3.60;3.40;;;23.30;47.60;;;;;;4981421;28;20543;-65
2023/09/28 01:20:05;;;;;;;3.30;3.20;;;23.30;47.60;;;;;;4986536;28;20488;-62
2023/09/28 01:22:31;;;;;;;3.60;3.40;;;23.30;47.60;;;;;;4994704;28;21182;-62
2023/09/28 01:24:56;;;;;;;3.50;3.30;;;23.30;47.60;;;;;;5004490;28;21206;-60
2023/09/28 01:27:23;;;;;;;3.47;3.37;;;23.30;47.60;;;;;;5006774;28;20227;-64
2023/09/28 01:29:48;;;;;;;3.27;3.07;;;23.30;47.60;;;;;;4985184;28;20888;-62
2023/09/28 01:32:14;;;;;;;3.40;3.20;;;23.30;47.60;;;;;;4989424;28;20760;-63
2023/09/28 01:34:39;;;;;;;3.67;3.47;;;23.30;47.60;;;;;;4996739;28;20227;-67
2023/09/28 01:37:05;;;;;;;3.13;3.03;;;23.30;47.60;;;;;;4993408;28;20318;-65
2023/09/28 01:39:30;;;;;;;3.70;3.50;;;23.30;47.60;;;;;;4997449;28;20246;-67
2023/09/28 01:41:56;;;;;;;3.50;3.30;;;23.30;47.60;;;;;;4992769;28;20223;-61
2023/09/28 01:44:22;;;;;;;3.20;3.10;;;23.30;47.60;;;;;;4988719;28;20240;-60
2023/09/28 01:46:47;;;;;;;3.40;3.20;;;23.30;47.60;;;;;;4982864;28;20688;-64
2023/09/28 01:49:13;;;;;;;3.90;3.70;;;23.30;47.60;;;;;;4982478;28;20226;-62
2023/09/28 01:51:38;;;;;;;3.53;3.33;;;23.30;47.60;;;;;;4981776;28;20350;-66
2023/09/28 01:54:04;;;;;;;3.33;3.13;;;23.30;47.60;;;;;;4997672;28;20218;-65
2023/09/28 01:56:30;;;;;;;3.73;3.53;;;23.30;47.60;;;;;;4996068;28;20561;-62
2023/09/28 01:58:55;;;;;;;3.60;3.40;;;23.30;47.60;;;;;;4987201;28;20268;-62
2023/09/28 02:01:28;;;;;;;3.83;3.63;;;23.30;47.60;;;;;;4979705;28;20560;-63
2023/09/28 02:03:54;;;;;;;3.20;3.10;;;23.30;47.60;;;;;;4977864;28;20398;-67
2023/09/28 02:06:19;;;;;;;3.67;3.47;;;23.30;47.60;;;;;;4978052;28;20461;-65
2023/09/28 02:08:45;;;;;;;3.70;3.50;;;23.30;47.60;;;;;;4996938;28;20234;-62
2023/09/28 02:11:11;;;;;;;3.43;3.23;;;23.30;48.30;;;;;;4998686;28;21120;-66
2023/09/28 02:13:36;;;;;;;3.57;3.37;;;23.30;47.60;;;;;;5002436;28;20468;-59
2023/09/28 02:16:03;;;;;;;3.67;3.47;;;23.30;47.60;;;;;;4996093;28;22267;-68
2023/09/28 02:18:28;;;;;;;3.67;3.47;;;23.30;47.60;;;;;;4986081;28;20226;-66
2023/09/28 02:20:54;;;;;;;3.63;3.43;;;23.30;47.60;;;;;;4978408;28;20469;-67
2023/09/28 02:23:19;;;;;;;3.70;3.50;;;23.30;47.60;;;;;;4984371;28;20230;-64
2023/09/28 02:25:45;;;;;;;3.50;3.30;;;23.30;47.60;;;;;;4996983;28;20285;-61
2023/09/28 02:28:11;;;;;;;3.50;3.30;;;23.30;47.60;;;;;;5002004;28;20230;-60
2023/09/28 02:30:37;;;;;;;3.60;3.40;;;23.30;47.60;;;;;;4995083;28;20227;-67
2023/09/28 02:33:06;;;;;;;3.27;3.17;;;23.30;47.60;;;;;;4982548;28;20465;-67
2023/09/28 02:35:32;;;;;;;3.40;3.30;;;23.30;47.60;;;;;;4991847;28;20226;-68
2023/09/28 02:37:57;;;;;;;3.70;3.50;;;23.30;47.60;;;;;;4994400;28;20468;-63
2023/09/28 02:40:23;;;;;;;3.50;3.30;;;23.30;47.60;;;;;;4998103;28;20230;-62
2023/09/28 02:42:50;;;;;;;3.10;3.00;;;23.30;47.60;;;;;;4997484;28;20231;-61
2023/09/28 02:45:15;;;;;;;3.50;3.30;;;23.30;47.60;;;;;;4998443;28;20546;-61
2023/09/28 02:47:45;;;;;;;3.60;3.40;;;23.30;47.60;;;;;;4999627;28;20562;-60
2023/09/28 02:50:12;;;;;;;3.70;3.50;;;23.30;47.60;;;;;;4972093;28;20339;-61
2023/09/28 02:52:39;;;;;;;3.90;3.70;;;23.30;47.60;;;;;;5001425;28;20496;-59
2023/09/28 02:55:07;;;;;;;3.50;3.30;;;23.30;47.60;;;;;;4997398;28;20483;-62
2023/09/28 02:57:36;;;;;;;3.70;3.50;;;23.30;47.60;;;;;;4998152;28;20512;-62
2023/09/28 03:00:11;;;;;;;3.77;3.57;;;23.30;47.60;;;;;;4998272;28;20484;-69
2023/09/28 03:02:37;;;;;;;3.30;3.20;;;23.30;47.60;;;;;;4994701;28;20554;-65
2023/09/28 03:05:03;;;;;;;4.00;3.70;;;23.30;47.60;;;;;;5001126;28;20462;-60
2023/09/28 03:07:28;;;;;;;3.73;3.53;;;23.30;47.60;;;;;;4994205;28;20541;-64
2023/09/28 03:09:54;;;;;;;3.17;3.07;;;23.20;47.50;;;;;;4999476;28;20309;-63
2023/09/28 03:12:20;;;;;;;3.57;3.37;;;23.20;47.50;;;;;;4996187;28;20219;-59
2023/09/28 03:14:45;;;;;;;3.50;3.30;;;23.30;47.60;;;;;;4988024;28;20234;-67
2023/09/28 03:17:11;;;;;;;3.70;3.50;;;23.20;47.50;;;;;;4985277;28;20227;-64
2023/09/28 03:19:37;;;;;;;3.53;3.33;;;23.30;47.60;;;;;;4992972;28;20231;-65
2023/09/28 03:22:02;;;;;;;3.37;3.23;;;23.20;47.50;;;;;;4996845;28;20332;-64
2023/09/28 03:24:28;;;;;;;3.03;2.90;;;23.20;47.50;;;;;;5004473;28;20276;-64
2023/09/28 03:26:53;;;;;;;3.60;3.40;;;23.20;47.50;;;;;;4988005;28;20658;-63
2023/09/28 03:29:19;;;;;;;2.90;2.80;;;23.20;47.50;;;;;;4993137;28;20231;-63
2023/09/28 03:31:44;;;;;;;3.50;3.40;;;23.20;47.50;;;;;;4978172;28;20322;-60
2023/09/28 03:34:10;;;;;;;3.00;2.90;;;23.20;47.50;;;;;;4978696;28;20219;-65
2023/09/28 03:36:35;;;;;;;3.10;3.00;;;23.20;47.50;;;;;;4994932;28;20254;-63
2023/09/28 03:39:01;;;;;;;3.10;3.00;;;23.20;47.50;;;;;;4974976;28;20310;-66
2023/09/28 03:41:27;;;;;;;3.40;3.30;;;23.30;47.50;;;;;;4977150;28;20258;-62
2023/09/28 03:43:53;;;;;;;3.10;2.90;;;23.20;47.20;;;;;;4998156;28;20240;-67
2023/09/28 03:46:19;;;;;;;3.43;3.20;;;23.20;47.30;;;;;;4999331;28;20250;-60
2023/09/28 03:48:45;;;;;;;3.80;3.60;;;23.20;47.20;;;;;;4997810;28;20543;-62
2023/09/28 03:51:11;;;;;;;3.30;3.13;;;23.20;47.10;;;;;;4995638;28;20936;-66
2023/09/28 03:53:40;;;;;;;3.13;2.97;;;23.20;47.20;;;;;;4989224;28;20224;-61
2023/09/28 03:56:06;;;;;;;3.70;3.50;;;23.30;47.20;;;;;;4993014;28;20237;-60
2023/09/28 03:58:31;;;;;;;3.10;3.00;;;23.20;47.10;;;;;;4996769;28;20476;-67
2023/09/28 04:00:58;;;;;;;3.07;2.97;;;23.20;47.10;;;;;;4994955;28;20711;-59
2023/09/28 04:03:24;;;;;;;3.20;3.07;;;23.20;47.00;;;;;;4995156;28;20224;-69
2023/09/28 04:05:49;;;;;;;3.17;3.07;;;23.20;47.00;;;;;;4984935;28;20570;-60
2023/09/28 04:08:15;;;;;;;2.70;2.60;;;23.20;47.00;;;;;;4992322;28;21028;-71
2023/09/28 04:10:41;;;;;;;3.20;3.10;;;23.20;47.00;;;;;;4996641;28;20219;-67
2023/09/28 04:13:07;;;;;;;3.30;3.10;;;23.20;46.90;;;;;;4992470;28;20224;-64
2023/09/28 04:15:33;;;;;;;3.20;3.10;;;23.20;46.90;;;;;;4976087;28;20833;-61
2023/09/28 04:17:59;;;;;;;3.33;3.13;;;23.20;46.90;;;;;;4994100;28;20624;-64
2023/09/28 04:20:24;;;;;;;3.70;3.53;;;23.30;46.80;;;;;;4984062;28;20358;-67
2023/09/28 04:22:50;;;;;;;3.73;3.53;;;23.30;46.80;;;;;;4986202;28;20224;-60
2023/09/28 04:25:18;;;;;;;3.47;3.37;;;23.30;46.70;;;;;;4980626;28;22421;-68
2023/09/28 04:27:44;;;;;;;3.10;3.00;;;23.30;46.70;;;;;;4986835;28;21150;-69
2023/09/28 04:30:10;;;;;;;2.93;2.83;;;23.30;46.60;;;;;;4986925;28;20467;-75
2023/09/28 04:32:36;;;;;;;3.30;3.10;;;23.30;46.60;;;;;;4989935;28;20504;-68
2023/09/28 04:35:06;;;;;;;3.47;3.27;;;23.30;46.50;;;;;;4988520;28;20819;-67
2023/09/28 04:37:31;;;;;;;5.13;3.40;;;23.30;46.50;;;;;;4999756;28;20274;-69
2023/09/28 04:39:57;;;;;;;3.20;3.10;;;23.30;46.50;;;;;;4994171;28;20498;-64
2023/09/28 04:42:22;;;;;;;3.27;3.07;;;23.30;46.50;;;;;;4992930;28;20234;-72
2023/09/28 04:44:49;;;;;;;3.10;3.00;;;23.30;46.40;;;;;;4990558;28;20298;-65
2023/09/28 04:47:15;;;;;;;3.27;3.07;;;23.30;46.40;;;;;;4990204;28;20215;-63
2023/09/28 04:49:43;;;;;;;3.80;3.60;;;23.30;46.40;;;;;;4998133;28;20570;-59
2023/09/28 04:52:13;;;;;;;3.77;3.57;;;23.30;46.40;;;;;;4991907;28;20269;-69
2023/09/28 04:54:39;;;;;;;3.40;3.20;;;23.30;46.50;;;;;;4976956;28;22493;-67
2023/09/28 04:57:05;;;;;;;3.60;3.40;;;23.30;46.40;;;;;;4981032;28;20510;-62
2023/09/28 04:59:30;;;;;;;3.33;3.20;;;23.30;46.40;;;;;;4999214;28;20488;-70
2023/09/28 05:01:59;;;;;;;3.63;3.43;;;23.30;46.30;;;;;;4995139;28;20292;-70
2023/09/28 05:04:25;;;;;;;3.37;3.10;;;23.30;46.30;;;;;;5001528;28;20974;-72
2023/09/28 05:06:51;;;;;;;3.23;3.13;;;23.30;46.40;;;;;;4987584;28;20218;-63
2023/09/28 05:09:18;;;;;;;3.43;3.23;;;23.30;46.40;;;;;;5000137;28;20457;-65
2023/09/28 05:11:43;;;;;;;3.33;3.20;;;23.30;46.40;;;;;;4990604;28;20219;-63
2023/09/28 05:14:09;;;;;;;2.93;2.83;;;23.30;46.40;;;;;;4996740;28;20952;-62
2023/09/28 05:16:34;;;;;;;3.13;3.03;;;23.30;46.40;;;;;;4994507;28;20227;-63
2023/09/28 05:19:00;;;;;;;4.17;3.97;;;23.30;46.40;;;;;;4998350;28;20952;-66
2023/09/28 05:21:26;;;;;;;3.17;2.97;;;23.30;46.40;;;;;;4978169;28;20223;-62
2023/09/28 05:23:51;;;;;;;3.40;3.20;;;23.30;46.40;;;;;;4982654;28;20269;-64
2023/09/28 05:26:17;;;;;;;3.50;3.30;;;23.30;46.40;;;;;;4975889;28;20229;-66
2023/09/28 05:28:42;;;;;;;3.13;3.00;;;23.30;46.40;;;;;;4979720;28;20231;-60
2023/09/28 05:31:08;;;;;;;3.23;3.13;;;23.30;46.40;;;;;;4980355;28;20258;-66
2023/09/28 05:33:34;;;;;;;6.13;3.77;;;23.30;46.40;;;;;;4982659;28;20276;-60
2023/09/28 05:36:00;;;;;;;3.10;2.90;;;23.30;46.40;;;;;;5001459;28;20271;-59
2023/09/28 05:38:25;;;;;;;3.90;3.67;;;23.30;46.40;;;;;;4992901;28;20228;-63
2023/09/28 05:40:51;;;;;;;3.03;2.93;;;23.30;46.40;;;;;;5000774;28;20242;-62
2023/09/28 05:43:16;;;;;;;3.57;3.00;;;23.30;46.40;;;;;;4997250;28;21524;-70
2023/09/28 05:45:42;;;;;;;3.50;3.30;;;23.30;46.40;;;;;;4990267;28;20232;-61
2023/09/28 05:48:07;;;;;;;3.60;3.40;;;23.30;46.40;;;;;;4997518;28;20230;-60
2023/09/28 05:50:33;;;;;;;4.20;3.33;;;23.30;46.40;;;;;;4999382;28;20264;-64
2023/09/28 05:52:58;;;;;;;3.03;2.83;;;23.30;46.30;;;;;;4997758;28;20578;-61
2023/09/28 05:55:25;;;;;;;3.70;3.40;;;23.30;46.30;;;;;;4988593;28;20633;-69
2023/09/28 05:57:53;;;;;;;3.67;3.20;;;23.30;46.30;;;;;;4991038;28;20679;-62
2023/09/28 06:00:18;;;;;;;3.07;2.80;;;23.30;46.30;;;;;;4995562;28;21458;-63
2023/09/28 06:02:44;;;;;;;3.30;3.10;;;23.30;46.30;;;;;;5003976;28;20455;-66
2023/09/28 06:05:10;;;;;;;3.03;2.83;;;23.30;46.30;;;;;;4977457;28;20231;-68
2023/09/28 06:07:35;;;;;;;2.90;2.70;;;23.30;46.30;;;;;;4980223;28;20238;-59
2023/09/28 06:10:02;;;;;;;3.07;2.87;;;23.30;46.30;;;;;;4995078;28;20246;-68
2023/09/28 06:12:28;;;;;;;3.23;2.93;;;23.30;46.30;;;;;;4997480;28;20238;-60
2023/09/28 06:14:53;;;;;;;3.13;2.93;;;23.30;46.30;;;;;;4990404;28;20583;-70
2023/09/28 06:17:19;;;;;;;3.40;3.20;;;23.30;46.30;;;;;;4988186;28;20486;-64
2023/09/28 06:19:44;;;;;;;2.87;2.67;;;23.30;46.30;;;;;;4999871;28;20234;-65
2023/09/28 06:22:10;;;;;;;3.20;3.10;;;23.30;46.30;;;;;;4998325;28;20386;-66
2023/09/28 06:24:38;;;;;;;3.60;3.40;;;23.30;46.30;;;;;;4990026;28;21129;-64
2023/09/28 06:27:05;;;;;;;3.00;2.80;;;23.30;46.40;;;;;;4998895;28;20696;-61
2023/09/28 06:29:32;;;;;;;2.70;2.60;;;23.30;46.40;;;;;;4997759;28;20551;-69
2023/09/28 06:31:58;;;;;;;2.47;2.37;;;23.30;46.40;;;;;;4993160;28;20538;-59
2023/09/28 06:34:23;;;;;;;3.33;3.10;;;23.30;46.40;;;;;;4979547;28;20556;-67
2023/09/28 06:36:49;;;;;;;3.23;3.00;;;23.30;46.40;;;;;;4991865;28;20471;-61
2023/09/28 06:39:14;;;;;;;3.30;3.00;;;23.30;46.50;;;;;;5005086;28;20293;-62
2023/09/28 06:41:40;;;;;;;3.43;3.20;;;23.30;46.40;;;;;;5000548;28;21041;-67
2023/09/28 06:44:06;;;;;;;3.03;2.80;;;23.30;46.40;;;;;;4990173;28;20236;-61
2023/09/28 06:46:31;;;;;;;3.23;3.03;;;23.30;46.50;;;;;;4994012;28;20414;-69
2023/09/28 06:48:58;;;;;;;2.67;2.43;;;23.30;46.50;;;;;;5000834;28;20461;-64
2023/09/28 06:51:25;;;;;;;2.90;2.70;;;23.30;46.50;;;;;;4996695;28;20604;-61
2023/09/28 06:53:51;;;;;;;2.90;2.80;;;23.30;46.50;;;;;;4997243;28;20463;-67
2023/09/28 06:56:16;;;;;;;5.50;2.80;;;23.30;46.40;;;;;;4975272;28;20466;-69
2023/09/28 06:58:42;;;;;;;3.43;3.23;;;23.30;46.50;;;;;;4996095;28;20227;-63
2023/09/28 07:01:08;;;;;;;2.73;2.60;;;23.30;46.50;;;;;;4994413;28;20297;-62
2023/09/28 07:03:33;;;;;;;2.90;2.80;;;23.30;46.50;;;;;;4992539;28;20262;-63
2023/09/28 07:06:00;;;;;;;2.60;2.50;;;23.30;46.50;;;;;;4997762;28;20729;-68
2023/09/28 07:08:26;;;;;;;3.13;2.93;;;23.30;46.60;;;;;;4998030;28;20231;-66
2023/09/28 07:10:51;;;;;;;3.00;2.80;;;23.30;46.60;;;;;;4997755;28;20470;-61
2023/09/28 07:13:17;;;;;;;2.70;2.60;;;23.30;46.60;;;;;;4999090;28;21248;-67
2023/09/28 07:15:43;;;;;;;3.07;2.97;;;23.30;46.60;;;;;;4977823;28;20218;-62
2023/09/28 07:18:08;;;;;;;3.27;3.07;;;23.30;46.70;;;;;;4985077;28;20222;-61
2023/09/28 07:20:35;;;;;;;2.70;2.50;;;23.30;46.60;;;;;;4974926;28;20608;-63
2023/09/28 07:23:01;;;;;;;2.70;2.60;;;23.30;46.60;;;;;;4985889;28;20753;-61
2023/09/28 07:25:26;;;;;;;2.97;2.80;;;23.30;46.60;;;;;;4998353;28;20465;-66
2023/09/28 07:27:52;;;;;;;3.03;2.90;;;23.30;46.70;;;;;;4986943;28;20274;-62
2023/09/28 07:30:22;;;;;;;2.90;2.60;;;23.30;46.70;;;;;;4991232;28;20231;-68
2023/09/28 07:32:49;;;;;;;2.80;2.60;;;23.30;46.70;;;;;;4994169;28;20266;-68
2023/09/28 07:35:15;;;;;;;2.43;2.33;;;23.30;46.70;;;;;;4992799;28;20469;-66
2023/09/28 07:37:44;;;;;;;2.70;2.60;;;23.30;46.80;;;;;;4999270;28;20921;-62
2023/09/28 07:40:12;;;;;;;2.73;2.53;;;23.30;46.80;;;;;;4994154;28;20480;-66
2023/09/28 07:42:43;;;;;;;3.07;2.87;;;23.30;46.70;;;;;;4983676;28;20496;-66
2023/09/28 07:45:11;;;;;;;3.50;2.90;;;23.30;47.50;;;;;;4995959;28;21044;-62
2023/09/28 07:47:38;;;;;;;3.40;3.10;;;23.30;46.80;;;;;;4979272;28;21542;-64
2023/09/28 07:50:07;;;;;;;2.80;2.70;;;23.30;46.80;;;;;;4992208;28;20576;-60
2023/09/28 07:52:33;;;;;;;3.10;2.90;;;23.30;46.80;;;;;;4975428;28;20592;-59
2023/09/28 07:54:58;;;;;;;3.07;2.87;;;23.30;46.90;;;;;;4978293;28;20907;-66
2023/09/28 07:57:24;;;;;;;2.57;2.30;;;23.30;47.00;;;;;;4997744;28;20306;-67
2023/09/28 07:59:51;;;;;;;2.70;2.50;;;23.30;47.00;;;;;;4984397;28;20230;-66
2023/09/28 08:02:17;;;;;;;2.80;2.60;;;23.40;47.00;;;;;;4979596;28;20223;-62
2023/09/28 08:04:42;;;;;;;3.10;2.90;;;23.30;47.00;;;;;;4990573;28;20507;-60
2023/09/28 08:07:08;;;;;;;2.93;2.73;;;23.30;47.00;;;;;;4995357;28;20724;-68
2023/09/28 08:09:33;;;;;;;3.23;3.07;;;23.30;47.00;;;;;;4995940;28;20235;-65
2023/09/28 08:11:59;;;;;;;2.80;2.60;;;23.30;47.00;;;;;;4998688;28;20571;-62
2023/09/28 08:14:24;;;;;;;2.80;2.70;;;23.30;47.10;;;;;;4991594;28;20222;-64
2023/09/28 08:16:50;;;;;;;2.73;2.63;;;23.30;47.10;;;;;;4979722;28;20223;-60
2023/09/28 08:19:16;;;;;;;2.87;2.67;;;23.30;47.10;;;;;;4975262;28;20231;-67
2023/09/28 08:21:43;;;;;;;2.53;2.43;;;23.30;47.10;;;;;;4972172;28;20246;-60
2023/09/28 08:24:10;;;;;;;3.17;3.07;;;23.40;47.20;;;;;;4988842;28;20483;-64
2023/09/28 08:26:36;;;;;;;3.17;3.00;;;23.40;47.20;;;;;;4991008;28;21202;-59
2023/09/28 08:29:03;;;;;;;2.63;2.53;;;23.30;47.20;;;;;;5000107;28;20464;-69
2023/09/28 08:31:32;;;;;;;2.80;2.60;;;23.30;47.20;;;;;;5004950;28;20592;-59
2023/09/28 08:33:59;;;;;;;2.70;2.60;;;23.30;47.20;;;;;;4987213;28;20475;-60
2023/09/28 08:36:29;;;;;;;2.60;2.50;;;23.30;48.10;;;;;;4987869;28;20464;-61
2023/09/28 08:38:55;;;;;;;3.03;2.83;;;23.30;47.30;;;;;;4981982;28;20480;-61
2023/09/28 08:41:31;;;;;;;2.97;2.77;;;23.30;47.40;;;;;;4994781;28;21157;-62
2023/09/28 08:44:05;;;;;;;2.70;2.60;;;23.30;47.40;;;;;;4991635;28;20460;-59
2023/09/28 08:46:40;;;;;;;3.10;2.90;;;23.30;47.50;;;;;;4996474;28;20619;-61
2023/09/28 08:49:14;;;;;;;2.90;2.70;;;23.30;47.50;;;;;;5002468;28;20479;-63
2023/09/28 08:51:40;;;;;;;2.93;2.77;;;23.30;47.50;;;;;;4987259;28;20457;-67
2023/09/28 08:54:06;;;;;;;2.40;2.30;;;23.40;47.60;;;;;;4982765;28;21526;-62
2023/09/28 08:56:34;;;;;;;3.13;2.93;;;23.30;47.50;;;;;;4974084;28;20477;-69
2023/09/28 08:59:01;;;;;;;2.60;2.50;;;23.40;47.60;;;;;;4985337;28;20222;-61
2023/09/28 09:01:28;;;;;;;2.77;2.57;;;23.40;47.60;;;;;;4991066;28;20475;-62
2023/09/28 09:03:55;;;;;;;2.80;2.70;;;23.30;47.60;;;;;;4994072;28;20557;-68
2023/09/28 09:06:23;;;;;;;3.30;3.00;;;23.40;47.70;;;;;;4994799;28;20472;-60
2023/09/28 09:08:49;;;;;;;2.80;2.70;;;23.30;47.60;;;;;;4976339;28;20476;-61
2023/09/28 09:11:18;;;;;;;2.60;2.50;;;23.30;47.60;;;;;;4983814;28;21472;-62
2023/09/28 09:13:54;;;;;;;2.57;2.47;;;23.40;47.70;;;;;;4986206;28;20920;-61
2023/09/28 09:16:22;;;;;;;2.73;2.63;;;23.40;47.70;;;;;;4990783;28;20537;-61
2023/09/28 09:18:48;;;;;;;2.50;2.40;;;23.40;47.70;;;;;;4993905;28;20456;-62
2023/09/28 09:21:14;;;;;;;2.70;2.60;;;23.40;47.70;;;;;;4980484;28;21153;-69
2023/09/28 09:23:39;;;;;;;3.00;2.80;;;23.40;47.70;;;;;;4994450;28;21257;-61
2023/09/28 09:26:16;;;;;;;3.00;2.90;;;23.40;47.70;;;;;;4994062;28;20234;-64
2023/09/28 09:28:43;;;;;;;2.70;2.60;;;23.40;47.70;;;;;;4995019;28;20233;-66
2023/09/28 09:31:09;;;;;;;2.67;2.47;;;23.40;47.70;;;;;;4978144;28;20469;-63
2023/09/28 09:33:36;;;;;;;3.07;2.87;;;23.40;47.70;;;;;;4991768;28;20472;-67
2023/09/28 09:36:01;;;;;;;2.67;2.47;;;23.40;47.70;;;;;;4993088;28;20276;-69
2023/09/28 09:38:29;;;;;;;2.70;2.60;;;23.40;47.70;;;;;;4979463;28;20457;-67
2023/09/28 09:41:01;;;;;;;2.77;2.57;;;23.40;47.70;;;;;;4991998;28;20244;-60
2023/09/28 09:43:46;;;;;;;2.13;2.03;;;23.40;47.70;;;;;;5011131;28;21134;-68
2023/09/28 09:46:11;;;;;;;2.37;2.27;;;23.40;47.70;;;;;;4994188;28;20492;-68
2023/09/28 09:48:41;;;;;;;2.80;2.70;;;23.40;47.70;;;;;;4992673;28;20535;-60
2023/09/28 09:51:15;;;;;;;3.07;2.90;;;23.40;47.70;;;;;;5001663;28;20491;-63
2023/09/28 09:53:45;;;;;;;2.87;2.67;;;23.40;47.70;;;;;;4974298;28;20538;-59
2023/09/28 09:56:13;;;;;;;2.63;2.43;;;23.40;47.70;;;;;;4991897;28;21101;-61
2023/09/28 09:58:47;;;;;;;2.60;2.50;;;23.40;47.70;;;;;;4997435;28;20500;-61
2023/09/28 10:01:14;;;;;;;2.30;2.20;;;23.40;48.40;;;;;;4990872;28;20700;-68
2023/09/28 10:03:47;;;;;;;2.47;2.37;;;23.40;47.70;;;;;;4998707;28;20475;-59
2023/09/28 10:06:15;;;;;;;2.50;2.40;;;23.40;47.70;;;;;;4990302;28;20472;-63
2023/09/28 10:08:45;;;;;;;2.33;2.23;;;23.40;47.70;;;;;;4995289;28;20471;-60
2023/09/28 10:11:12;;;;;;;2.40;2.30;;;23.40;47.70;;;;;;4987855;28;21390;-61
2023/09/28 10:13:38;;;;;;;2.50;2.40;;;23.40;47.70;;;;;;4994592;28;20473;-59
2023/09/28 10:16:05;;;;;;;2.57;2.47;;;23.40;47.70;;;;;;4995939;28;20446;-67
2023/09/28 10:18:35;;;;;;;2.53;2.43;;;23.40;47.70;;;;;;4994344;28;20223;-61
2023/09/28 10:21:01;;;;;;;2.70;2.60;;;23.40;47.70;;;;;;4977732;28;20500;-62
2023/09/28 10:23:28;;;;;;;2.97;2.77;;;23.40;47.70;;;;;;4981942;28;20476;-62
2023/09/28 10:25:58;;;;;;;2.60;2.40;;;23.40;47.70;;;;;;4994589;28;21770;-67
2023/09/28 10:28:24;;;;;;;2.30;2.20;;;23.40;47.70;;;;;;5006379;28;20464;-64
2023/09/28 10:31:10;;;;;;;2.70;2.50;;;23.40;47.70;;;;;;4997490;28;20521;-63
2023/09/28 10:33:57;;;;;;;2.50;2.40;;;23.40;47.70;;;;;;4983158;28;20538;-64
2023/09/28 10:36:22;;;;;;;2.60;2.40;;;23.40;47.70;;;;;;4993691;28;20480;-65
2023/09/28 10:39:05;;;;;;;2.37;2.27;;;23.40;47.70;;;;;;4993830;28;20476;-67
2023/09/28 10:41:30;;;;;;;3.83;3.53;;;23.40;47.70;;;;;;4988048;28;20230;-69
2023/09/28 10:43:56;;;;;;;2.77;2.57;;;23.40;47.70;;;;;;4995493;28;20474;-60
2023/09/28 10:46:23;;;;;;;2.67;2.50;;;23.40;47.70;;;;;;4975855;28;20302;-63
2023/09/28 10:48:51;;;;;;;2.53;2.43;;;23.40;47.70;;;;;;4978013;28;20219;-62
2023/09/28 10:51:18;;;;;;;2.40;2.30;;;23.40;47.60;;;;;;4990169;28;20479;-61
2023/09/28 10:53:45;;;;;;;2.40;2.30;;;23.40;47.70;;;;;;5002282;28;20513;-66
2023/09/28 10:56:11;;;;;;;2.20;2.10;;;23.40;47.70;;;;;;5013574;28;20960;-63
2023/09/28 10:58:38;;;;;;;2.30;2.20;;;23.40;47.70;;;;;;5000646;28;20460;-60
2023/09/28 11:01:06;;;;;;;2.40;2.30;;;23.40;47.70;;;;;;4992906;28;20475;-61
2023/09/28 11:03:33;;;;;;;2.20;2.10;;;23.40;47.70;;;;;;4996357;28;20472;-68
2023/09/28 11:06:00;;;;;;;2.60;2.50;;;23.40;47.70;;;;;;4992831;28;20474;-60
2023/09/28 11:08:26;;;;;;;2.27;2.17;;;23.40;47.70;;;;;;4996853;28;20463;-62
2023/09/28 11:10:55;;;;;;;2.57;2.47;;;23.40;47.70;;;;;;4987762;28;20819;-64
2023/09/28 11:13:24;;;;;;;2.40;2.30;;;23.40;47.70;;;;;;4980474;28;20232;-65
2023/09/28 11:15:50;;;;;;;2.60;2.50;;;23.40;47.70;;;;;;4975641;28;21097;-64
2023/09/28 11:18:17;;;;;;;2.60;2.40;;;23.40;47.70;;;;;;4995287;28;20483;-63
2023/09/28 11:20:43;;;;;;;2.40;2.30;;;23.40;47.70;;;;;;4990782;28;20240;-66
2023/09/28 11:23:12;;;;;;;2.63;2.43;;;23.40;47.70;;;;;;4999082;28;20521;-66
2023/09/28 11:25:44;;;;;;;2.43;2.33;;;23.40;47.70;;;;;;4990296;28;20995;-63
2023/09/28 11:28:11;;;;;;;2.63;2.43;;;23.40;47.70;;;;;;4997007;28;21185;-61
2023/09/28 11:30:37;;;;;;;3.13;2.70;;;23.40;47.70;;;;;;5000025;28;20464;-61
2023/09/28 11:33:03;;;;;;;2.77;2.60;;;23.40;47.70;;;;;;4993473;28;21768;-60
2023/09/28 11:35:34;;;;;;;2.43;2.23;;;23.40;47.70;;;;;;4977672;28;20965;-63
2023/09/28 11:38:00;;;;;;;2.57;2.47;;;23.40;47.70;;;;;;4982095;28;20472;-63
2023/09/28 11:40:27;;;;;;;3.10;2.70;;;23.40;47.70;;;;;;4994710;28;20560;-66
2023/09/28 11:42:53;;;;;;;2.63;2.47;;;23.40;47.70;;;;;;4981806;28;20531;-63
2023/09/28 11:45:33;;;;;;;2.37;2.00;;;23.40;47.70;;;;;;4980360;28;20469;-64
2023/09/28 11:48:04;;;;;;;2.27;2.17;;;23.40;47.70;;;;;;4975224;28;20472;-63
2023/09/28 11:50:30;;;;;;;2.23;2.13;;;23.40;47.70;;;;;;4987443;28;20488;-61
2023/09/28 11:52:56;;;;;;;2.47;2.37;;;23.40;47.70;;;;;;4992022;28;21381;-66
2023/09/28 11:55:22;;;;;;;2.60;2.40;;;23.40;47.70;;;;;;4994469;28;20957;-63
2023/09/28 11:57:48;;;;;;;2.27;2.10;;;23.40;47.70;;;;;;5001479;28;20332;-62
2023/09/28 12:00:21;;;;;;;2.10;2.00;;;23.40;47.70;;;;;;4990532;28;20771;-63
2023/09/28 12:02:46;;;;;;;2.13;2.00;;;23.40;47.70;;;;;;4991493;28;20492;-66
2023/09/28 12:05:13;;;;;;;2.40;2.30;;;23.40;47.70;;;;;;4985965;28;22002;-61
2023/09/28 12:07:40;;;;;;;2.40;2.30;;;23.40;47.70;;;;;;4990746;28;20695;-68
2023/09/28 12:10:09;;;;;;;2.40;2.20;;;23.40;47.70;;;;;;4992685;28;22350;-68
2023/09/28 12:12:34;;;;;;;2.43;2.33;;;23.40;47.70;;;;;;4998451;28;20456;-60
2023/09/28 12:15:00;;;;;;;2.20;2.10;;;23.40;47.70;;;;;;4977389;28;20460;-66
2023/09/28 12:17:25;;;;;;;2.37;2.17;;;23.40;47.70;;;;;;4989197;28;20230;-63
2023/09/28 12:19:51;;;;;;;2.17;1.97;;;23.40;47.70;;;;;;4992481;28;20934;-62
2023/09/28 12:22:16;;;;;;;2.00;1.90;;;23.40;47.70;;;;;;4998134;28;20273;-62
2023/09/28 12:24:42;;;;;;;2.30;2.20;;;23.40;47.70;;;;;;4982043;28;20860;-62
2023/09/28 12:27:09;;;;;;;2.27;2.17;;;23.40;47.70;;;;;;4978983;28;20230;-61
2023/09/28 12:29:35;;;;;;;2.00;1.90;;;23.40;47.70;;;;;;4995782;28;20452;-61
2023/09/28 12:32:00;;;;;;;2.10;2.00;;;23.40;47.70;;;;;;4982986;28;20552;-65
2023/09/28 12:34:26;;;;;;;2.57;2.20;;;23.40;47.70;;;;;;4984777;28;20246;-61
2023/09/28 12:36:57;;;;;;;2.40;2.20;;;23.40;47.70;;;;;;4992440;28;20230;-61
2023/09/28 12:39:25;;;;;;;2.27;2.17;;;23.40;47.70;;;;;;4995917;28;20468;-66
2023/09/28 12:41:58;;;;;;;3.23;2.67;;;23.40;47.70;;;;;;4995811;28;20507;-67
2023/09/28 12:44:25;;;;;;;2.50;2.40;;;23.40;47.70;;;;;;4995937;28;20568;-60
2023/09/28 12:46:51;;;;;;;2.17;2.07;;;23.40;47.70;;;;;;4994270;28;20526;-65
2023/09/28 12:49:18;;;;;;;2.30;2.20;;;23.40;47.70;;;;;;4993060;28;20492;-67